sensor_id;sensor_type;location;lat;lon;timestamp;P1;durP1;ratioP1;P2;durP2;ratioP2
36259;SDS011;22296;50.824;5.644;2023-07-20T00:02:04;2.33;;;1.45;;
36259;SDS011;22296;50.824;5.644;2023-07-20T00:04:32;2.33;;;1.73;;
36259;SDS011;22296;50.824;5.644;2023-07-20T00:06:59;2.33;;;1.98;;
36259;SDS011;22296;50.824;5.644;2023-07-20T00:09:28;2.58;;;1.60;;
36259;SDS011;22296;50.824;5.644;2023-07-20T00:11:54;2.65;;;1.70;;
36259;SDS011;22296;50.824;5.644;2023-07-20T00:14:21;3.13;;;1.60;;
36259;SDS011;22296;50.824;5.644;2023-07-20T00:16:51;3.33;;;1.70;;
36259;SDS011;22296;50.824;5.644;2023-07-20T00:19:23;2.83;;;1.83;;
36259;SDS011;22296;50.824;5.644;2023-07-20T00:21:51;1.92;;;1.42;;
36259;SDS011;22296;50.824;5.644;2023-07-20T00:24:18;2.25;;;1.65;;
36259;SDS011;22296;50.824;5.644;2023-07-20T00:26:45;2.63;;;1.42;;
36259;SDS011;22296;50.824;5.644;2023-07-20T00:29:13;2.43;;;1.60;;
36259;SDS011;22296;50.824;5.644;2023-07-20T00:31:40;3.05;;;1.70;;
36259;SDS011;22296;50.824;5.644;2023-07-20T00:34:07;2.17;;;1.70;;
36259;SDS011;22296;50.824;5.644;2023-07-20T00:36:33;2.10;;;1.45;;
36259;SDS011;22296;50.824;5.644;2023-07-20T00:39:02;2.28;;;1.40;;
36259;SDS011;22296;50.824;5.644;2023-07-20T00:41:29;4.90;;;1.50;;
36259;SDS011;22296;50.824;5.644;2023-07-20T00:43:56;2.83;;;1.63;;
36259;SDS011;22296;50.824;5.644;2023-07-20T00:46:23;1.98;;;1.50;;
36259;SDS011;22296;50.824;5.644;2023-07-20T00:48:54;3.65;;;1.70;;
36259;SDS011;22296;50.824;5.644;2023-07-20T00:51:21;4.18;;;1.85;;
36259;SDS011;22296;50.824;5.644;2023-07-20T00:53:49;2.10;;;1.55;;
36259;SDS011;22296;50.824;5.644;2023-07-20T00:56:17;3.58;;;1.60;;
36259;SDS011;22296;50.824;5.644;2023-07-20T00:58:45;2.60;;;1.73;;
36259;SDS011;22296;50.824;5.644;2023-07-20T01:01:12;2.00;;;1.63;;
36259;SDS011;22296;50.824;5.644;2023-07-20T01:03:39;1.83;;;1.42;;
36259;SDS011;22296;50.824;5.644;2023-07-20T01:06:13;2.95;;;1.80;;
36259;SDS011;22296;50.824;5.644;2023-07-20T01:11:43;1.80;;;1.52;;
36259;SDS011;22296;50.824;5.644;2023-07-20T01:14:19;2.22;;;1.58;;
36259;SDS011;22296;50.824;5.644;2023-07-20T01:16:46;2.10;;;1.30;;
36259;SDS011;22296;50.824;5.644;2023-07-20T01:19:16;2.33;;;1.50;;
36259;SDS011;22296;50.824;5.644;2023-07-20T01:27:00;1.95;;;1.25;;
36259;SDS011;22296;50.824;5.644;2023-07-20T01:29:58;2.78;;;1.40;;
36259;SDS011;22296;50.824;5.644;2023-07-20T01:32:40;2.35;;;1.40;;
36259;SDS011;22296;50.824;5.644;2023-07-20T01:35:10;2.53;;;1.50;;
36259;SDS011;22296;50.824;5.644;2023-07-20T01:37:41;1.85;;;1.63;;
36259;SDS011;22296;50.824;5.644;2023-07-20T01:40:11;2.20;;;1.40;;
36259;SDS011;22296;50.824;5.644;2023-07-20T01:42:46;2.45;;;1.52;;
36259;SDS011;22296;50.824;5.644;2023-07-20T01:45:13;1.55;;;1.38;;
36259;SDS011;22296;50.824;5.644;2023-07-20T01:47:40;2.78;;;1.45;;
36259;SDS011;22296;50.824;5.644;2023-07-20T01:50:07;2.00;;;1.30;;
36259;SDS011;22296;50.824;5.644;2023-07-20T01:52:34;2.53;;;1.60;;
36259;SDS011;22296;50.824;5.644;2023-07-20T01:55:02;2.23;;;1.43;;
36259;SDS011;22296;50.824;5.644;2023-07-20T01:57:31;1.48;;;1.30;;
36259;SDS011;22296;50.824;5.644;2023-07-20T01:59:58;2.60;;;1.40;;
36259;SDS011;22296;50.824;5.644;2023-07-20T02:02:26;2.88;;;1.60;;
36259;SDS011;22296;50.824;5.644;2023-07-20T02:04:53;2.97;;;1.30;;
36259;SDS011;22296;50.824;5.644;2023-07-20T02:07:20;2.17;;;1.40;;
36259;SDS011;22296;50.824;5.644;2023-07-20T02:09:47;2.28;;;1.50;;
36259;SDS011;22296;50.824;5.644;2023-07-20T02:12:14;3.05;;;1.63;;
36259;SDS011;22296;50.824;5.644;2023-07-20T02:14:41;3.63;;;1.50;;
36259;SDS011;22296;50.824;5.644;2023-07-20T02:17:08;3.08;;;1.40;;
36259;SDS011;22296;50.824;5.644;2023-07-20T02:19:40;2.20;;;1.50;;
36259;SDS011;22296;50.824;5.644;2023-07-20T02:22:07;1.40;;;1.17;;
36259;SDS011;22296;50.824;5.644;2023-07-20T02:24:34;3.80;;;1.65;;
36259;SDS011;22296;50.824;5.644;2023-07-20T02:27:01;2.55;;;1.17;;
36259;SDS011;22296;50.824;5.644;2023-07-20T02:29:27;3.90;;;1.45;;
36259;SDS011;22296;50.824;5.644;2023-07-20T02:31:54;2.28;;;1.50;;
36259;SDS011;22296;50.824;5.644;2023-07-20T02:34:21;3.63;;;1.30;;
36259;SDS011;22296;50.824;5.644;2023-07-20T02:36:48;2.78;;;1.55;;
36259;SDS011;22296;50.824;5.644;2023-07-20T02:39:15;3.22;;;1.70;;
36259;SDS011;22296;50.824;5.644;2023-07-20T02:41:42;2.20;;;1.30;;
36259;SDS011;22296;50.824;5.644;2023-07-20T02:44:09;1.70;;;1.42;;
36259;SDS011;22296;50.824;5.644;2023-07-20T02:46:36;2.30;;;1.50;;
36259;SDS011;22296;50.824;5.644;2023-07-20T02:49:03;4.72;;;1.52;;
36259;SDS011;22296;50.824;5.644;2023-07-20T02:51:30;2.75;;;1.48;;
36259;SDS011;22296;50.824;5.644;2023-07-20T02:53:57;2.25;;;1.48;;
36259;SDS011;22296;50.824;5.644;2023-07-20T02:56:24;2.53;;;1.50;;
36259;SDS011;22296;50.824;5.644;2023-07-20T02:58:51;3.40;;;1.45;;
36259;SDS011;22296;50.824;5.644;2023-07-20T03:01:18;3.78;;;1.60;;
36259;SDS011;22296;50.824;5.644;2023-07-20T03:03:45;3.58;;;1.45;;
36259;SDS011;22296;50.824;5.644;2023-07-20T03:06:13;3.83;;;1.60;;
36259;SDS011;22296;50.824;5.644;2023-07-20T03:08:42;4.55;;;1.50;;
36259;SDS011;22296;50.824;5.644;2023-07-20T03:11:14;6.18;;;2.03;;
36259;SDS011;22296;50.824;5.644;2023-07-20T03:13:42;2.58;;;1.45;;
36259;SDS011;22296;50.824;5.644;2023-07-20T03:16:10;3.28;;;1.75;;
36259;SDS011;22296;50.824;5.644;2023-07-20T03:18:42;4.70;;;1.48;;
36259;SDS011;22296;50.824;5.644;2023-07-20T03:21:09;3.63;;;1.60;;
36259;SDS011;22296;50.824;5.644;2023-07-20T03:23:40;6.25;;;1.75;;
36259;SDS011;22296;50.824;5.644;2023-07-20T03:26:08;5.93;;;1.70;;
36259;SDS011;22296;50.824;5.644;2023-07-20T03:28:38;4.22;;;2.03;;
36259;SDS011;22296;50.824;5.644;2023-07-20T03:31:05;4.65;;;1.58;;
36259;SDS011;22296;50.824;5.644;2023-07-20T03:33:36;3.35;;;1.75;;
36259;SDS011;22296;50.824;5.644;2023-07-20T03:36:03;3.67;;;1.40;;
36259;SDS011;22296;50.824;5.644;2023-07-20T03:38:30;4.82;;;1.85;;
36259;SDS011;22296;50.824;5.644;2023-07-20T03:40:57;4.88;;;1.90;;
36259;SDS011;22296;50.824;5.644;2023-07-20T03:45:54;4.47;;;2.00;;
36259;SDS011;22296;50.824;5.644;2023-07-20T03:48:22;5.25;;;1.70;;
36259;SDS011;22296;50.824;5.644;2023-07-20T03:50:51;5.18;;;1.70;;
36259;SDS011;22296;50.824;5.644;2023-07-20T03:53:19;4.75;;;1.90;;
36259;SDS011;22296;50.824;5.644;2023-07-20T03:58:14;6.57;;;1.70;;
36259;SDS011;22296;50.824;5.644;2023-07-20T04:00:44;7.50;;;2.15;;
36259;SDS011;22296;50.824;5.644;2023-07-20T04:03:13;4.05;;;1.90;;
36259;SDS011;22296;50.824;5.644;2023-07-20T04:05:40;3.13;;;1.70;;
36259;SDS011;22296;50.824;5.644;2023-07-20T04:08:10;3.25;;;1.40;;
36259;SDS011;22296;50.824;5.644;2023-07-20T04:10:43;4.25;;;1.80;;
36259;SDS011;22296;50.824;5.644;2023-07-20T04:13:10;6.85;;;2.25;;
36259;SDS011;22296;50.824;5.644;2023-07-20T04:15:38;4.05;;;1.52;;
36259;SDS011;22296;50.824;5.644;2023-07-20T04:18:04;4.15;;;1.55;;
36259;SDS011;22296;50.824;5.644;2023-07-20T04:20:31;5.97;;;1.95;;
36259;SDS011;22296;50.824;5.644;2023-07-20T04:23:00;5.95;;;1.92;;
36259;SDS011;22296;50.824;5.644;2023-07-20T04:25:28;5.78;;;1.98;;
36259;SDS011;22296;50.824;5.644;2023-07-20T04:27:54;6.55;;;2.20;;
36259;SDS011;22296;50.824;5.644;2023-07-20T04:30:22;3.92;;;2.05;;
36259;SDS011;22296;50.824;5.644;2023-07-20T04:32:49;4.82;;;1.90;;
36259;SDS011;22296;50.824;5.644;2023-07-20T04:38:13;5.22;;;1.77;;
36259;SDS011;22296;50.824;5.644;2023-07-20T04:40:47;5.65;;;2.05;;
36259;SDS011;22296;50.824;5.644;2023-07-20T04:43:15;4.30;;;1.95;;
36259;SDS011;22296;50.824;5.644;2023-07-20T04:45:44;4.95;;;1.90;;
36259;SDS011;22296;50.824;5.644;2023-07-20T04:48:11;4.57;;;1.90;;
36259;SDS011;22296;50.824;5.644;2023-07-20T04:50:48;4.43;;;1.75;;
36259;SDS011;22296;50.824;5.644;2023-07-20T04:53:15;4.28;;;1.63;;
36259;SDS011;22296;50.824;5.644;2023-07-20T04:55:47;5.65;;;1.90;;
36259;SDS011;22296;50.824;5.644;2023-07-20T04:58:20;4.18;;;2.00;;
36259;SDS011;22296;50.824;5.644;2023-07-20T05:00:49;5.28;;;2.10;;
36259;SDS011;22296;50.824;5.644;2023-07-20T05:03:16;4.50;;;1.88;;
36259;SDS011;22296;50.824;5.644;2023-07-20T05:05:44;4.05;;;1.90;;
36259;SDS011;22296;50.824;5.644;2023-07-20T05:08:14;3.35;;;1.55;;
36259;SDS011;22296;50.824;5.644;2023-07-20T05:10:42;5.43;;;1.92;;
36259;SDS011;22296;50.824;5.644;2023-07-20T05:13:09;6.15;;;2.00;;
36259;SDS011;22296;50.824;5.644;2023-07-20T05:15:36;4.03;;;1.95;;
36259;SDS011;22296;50.824;5.644;2023-07-20T05:18:04;4.50;;;1.85;;
36259;SDS011;22296;50.824;5.644;2023-07-20T05:20:31;3.88;;;1.98;;
36259;SDS011;22296;50.824;5.644;2023-07-20T05:23:00;5.45;;;2.00;;
36259;SDS011;22296;50.824;5.644;2023-07-20T05:25:27;4.47;;;2.30;;
36259;SDS011;22296;50.824;5.644;2023-07-20T05:27:56;3.47;;;2.20;;
36259;SDS011;22296;50.824;5.644;2023-07-20T05:30:23;6.10;;;2.38;;
36259;SDS011;22296;50.824;5.644;2023-07-20T05:32:50;4.88;;;2.30;;
36259;SDS011;22296;50.824;5.644;2023-07-20T05:35:19;3.45;;;2.15;;
36259;SDS011;22296;50.824;5.644;2023-07-20T05:37:46;7.35;;;2.35;;
36259;SDS011;22296;50.824;5.644;2023-07-20T05:40:14;4.10;;;2.50;;
36259;SDS011;22296;50.824;5.644;2023-07-20T05:42:45;4.63;;;2.30;;
36259;SDS011;22296;50.824;5.644;2023-07-20T05:45:13;4.57;;;2.22;;
36259;SDS011;22296;50.824;5.644;2023-07-20T05:47:43;4.50;;;2.40;;
36259;SDS011;22296;50.824;5.644;2023-07-20T05:50:10;4.55;;;2.55;;
36259;SDS011;22296;50.824;5.644;2023-07-20T05:52:37;6.18;;;2.45;;
36259;SDS011;22296;50.824;5.644;2023-07-20T05:55:05;6.85;;;3.00;;
36259;SDS011;22296;50.824;5.644;2023-07-20T05:57:33;4.13;;;2.97;;
36259;SDS011;22296;50.824;5.644;2023-07-20T06:00:00;5.30;;;3.15;;
36259;SDS011;22296;50.824;5.644;2023-07-20T06:02:37;4.55;;;2.83;;
36259;SDS011;22296;50.824;5.644;2023-07-20T06:05:05;4.75;;;2.97;;
36259;SDS011;22296;50.824;5.644;2023-07-20T06:07:36;5.32;;;3.30;;
36259;SDS011;22296;50.824;5.644;2023-07-20T06:10:04;3.95;;;2.72;;
36259;SDS011;22296;50.824;5.644;2023-07-20T06:12:32;3.80;;;3.10;;
36259;SDS011;22296;50.824;5.644;2023-07-20T06:15:03;4.53;;;3.42;;
36259;SDS011;22296;50.824;5.644;2023-07-20T06:17:31;5.15;;;3.30;;
36259;SDS011;22296;50.824;5.644;2023-07-20T06:19:58;3.70;;;3.20;;
36259;SDS011;22296;50.824;5.644;2023-07-20T06:22:24;5.60;;;3.25;;
36259;SDS011;22296;50.824;5.644;2023-07-20T06:24:51;5.40;;;3.50;;
36259;SDS011;22296;50.824;5.644;2023-07-20T06:27:18;4.65;;;3.10;;
36259;SDS011;22296;50.824;5.644;2023-07-20T06:29:45;4.57;;;3.60;;
36259;SDS011;22296;50.824;5.644;2023-07-20T06:32:12;5.38;;;3.00;;
36259;SDS011;22296;50.824;5.644;2023-07-20T06:34:40;3.60;;;3.00;;
36259;SDS011;22296;50.824;5.644;2023-07-20T06:37:07;3.50;;;3.20;;
36259;SDS011;22296;50.824;5.644;2023-07-20T06:39:33;5.18;;;2.90;;
36259;SDS011;22296;50.824;5.644;2023-07-20T06:42:03;4.45;;;3.28;;
36259;SDS011;22296;50.824;5.644;2023-07-20T06:44:30;3.45;;;3.15;;
36259;SDS011;22296;50.824;5.644;2023-07-20T06:46:57;4.85;;;3.20;;
36259;SDS011;22296;50.824;5.644;2023-07-20T06:49:25;6.22;;;3.15;;
36259;SDS011;22296;50.824;5.644;2023-07-20T06:51:52;3.43;;;2.97;;
36259;SDS011;22296;50.824;5.644;2023-07-20T06:54:19;4.55;;;2.95;;
36259;SDS011;22296;50.824;5.644;2023-07-20T06:56:49;4.25;;;2.80;;
36259;SDS011;22296;50.824;5.644;2023-07-20T06:59:36;3.97;;;2.90;;
36259;SDS011;22296;50.824;5.644;2023-07-20T07:02:07;3.25;;;2.70;;
36259;SDS011;22296;50.824;5.644;2023-07-20T07:04:40;4.90;;;3.10;;
36259;SDS011;22296;50.824;5.644;2023-07-20T07:07:08;3.72;;;2.55;;
36259;SDS011;22296;50.824;5.644;2023-07-20T07:09:36;3.45;;;3.13;;
36259;SDS011;22296;50.824;5.644;2023-07-20T07:12:03;4.82;;;2.70;;
36259;SDS011;22296;50.824;5.644;2023-07-20T07:14:30;3.25;;;2.40;;
36259;SDS011;22296;50.824;5.644;2023-07-20T07:16:58;3.83;;;2.80;;
36259;SDS011;22296;50.824;5.644;2023-07-20T07:19:30;4.10;;;2.65;;
36259;SDS011;22296;50.824;5.644;2023-07-20T07:21:57;3.75;;;2.60;;
36259;SDS011;22296;50.824;5.644;2023-07-20T07:24:26;3.38;;;2.53;;
36259;SDS011;22296;50.824;5.644;2023-07-20T07:29:22;2.97;;;2.67;;
36259;SDS011;22296;50.824;5.644;2023-07-20T07:31:49;4.32;;;2.80;;
36259;SDS011;22296;50.824;5.644;2023-07-20T07:34:16;3.75;;;2.83;;
36259;SDS011;22296;50.824;5.644;2023-07-20T07:36:43;3.10;;;2.50;;
36259;SDS011;22296;50.824;5.644;2023-07-20T07:39:10;3.20;;;2.90;;
36259;SDS011;22296;50.824;5.644;2023-07-20T07:41:57;4.22;;;2.30;;
36259;SDS011;22296;50.824;5.644;2023-07-20T07:44:25;2.78;;;2.30;;
36259;SDS011;22296;50.824;5.644;2023-07-20T07:46:52;2.50;;;2.30;;
36259;SDS011;22296;50.824;5.644;2023-07-20T07:49:19;3.58;;;2.55;;
36259;SDS011;22296;50.824;5.644;2023-07-20T07:51:46;2.70;;;1.92;;
36259;SDS011;22296;50.824;5.644;2023-07-20T07:54:13;3.13;;;2.15;;
36259;SDS011;22296;50.824;5.644;2023-07-20T07:56:40;2.80;;;2.22;;
36259;SDS011;22296;50.824;5.644;2023-07-20T07:59:07;3.47;;;2.40;;
36259;SDS011;22296;50.824;5.644;2023-07-20T08:01:34;2.60;;;2.05;;
36259;SDS011;22296;50.824;5.644;2023-07-20T08:04:01;2.78;;;2.00;;
36259;SDS011;22296;50.824;5.644;2023-07-20T08:06:28;2.28;;;2.00;;
36259;SDS011;22296;50.824;5.644;2023-07-20T08:08:55;2.55;;;2.00;;
36259;SDS011;22296;50.824;5.644;2023-07-20T08:11:21;2.88;;;2.00;;
36259;SDS011;22296;50.824;5.644;2023-07-20T08:13:48;3.45;;;1.95;;
36259;SDS011;22296;50.824;5.644;2023-07-20T08:16:15;2.30;;;1.98;;
36259;SDS011;22296;50.824;5.644;2023-07-20T08:18:43;2.00;;;1.88;;
36259;SDS011;22296;50.824;5.644;2023-07-20T08:21:11;3.92;;;1.85;;
36259;SDS011;22296;50.824;5.644;2023-07-20T08:23:37;2.00;;;1.80;;
36259;SDS011;22296;50.824;5.644;2023-07-20T08:26:04;1.92;;;1.70;;
36259;SDS011;22296;50.824;5.644;2023-07-20T08:28:31;2.67;;;2.00;;
36259;SDS011;22296;50.824;5.644;2023-07-20T08:30:58;2.92;;;1.77;;
36259;SDS011;22296;50.824;5.644;2023-07-20T08:33:24;2.45;;;1.80;;
36259;SDS011;22296;50.824;5.644;2023-07-20T08:35:51;2.63;;;1.90;;
36259;SDS011;22296;50.824;5.644;2023-07-20T08:38:18;1.92;;;1.73;;
36259;SDS011;22296;50.824;5.644;2023-07-20T08:40:45;3.05;;;1.80;;
36259;SDS011;22296;50.824;5.644;2023-07-20T08:43:13;2.38;;;1.63;;
36259;SDS011;22296;50.824;5.644;2023-07-20T08:45:43;2.75;;;1.52;;
36259;SDS011;22296;50.824;5.644;2023-07-20T08:48:11;4.18;;;1.75;;
36259;SDS011;22296;50.824;5.644;2023-07-20T08:50:38;1.65;;;1.52;;
36259;SDS011;22296;50.824;5.644;2023-07-20T08:53:07;1.85;;;1.50;;
36259;SDS011;22296;50.824;5.644;2023-07-20T08:55:35;2.10;;;1.52;;
36259;SDS011;22296;50.824;5.644;2023-07-20T08:58:03;2.25;;;1.38;;
36259;SDS011;22296;50.824;5.644;2023-07-20T09:00:34;1.88;;;1.50;;
36259;SDS011;22296;50.824;5.644;2023-07-20T09:03:02;1.88;;;1.67;;
36259;SDS011;22296;50.824;5.644;2023-07-20T09:05:30;1.88;;;1.65;;
36259;SDS011;22296;50.824;5.644;2023-07-20T09:10:26;2.25;;;1.52;;
36259;SDS011;22296;50.824;5.644;2023-07-20T09:12:53;2.03;;;1.75;;
36259;SDS011;22296;50.824;5.644;2023-07-20T09:15:20;2.78;;;1.50;;
36259;SDS011;22296;50.824;5.644;2023-07-20T09:17:47;2.03;;;1.50;;
36259;SDS011;22296;50.824;5.644;2023-07-20T09:20:20;1.55;;;1.30;;
36259;SDS011;22296;50.824;5.644;2023-07-20T09:22:50;1.98;;;1.40;;
36259;SDS011;22296;50.824;5.644;2023-07-20T09:25:18;2.47;;;1.80;;
36259;SDS011;22296;50.824;5.644;2023-07-20T09:27:48;1.73;;;1.50;;
36259;SDS011;22296;50.824;5.644;2023-07-20T09:30:18;1.48;;;1.38;;
36259;SDS011;22296;50.824;5.644;2023-07-20T09:32:48;1.92;;;1.70;;
36259;SDS011;22296;50.824;5.644;2023-07-20T09:35:20;1.52;;;1.40;;
36259;SDS011;22296;50.824;5.644;2023-07-20T09:40:28;2.17;;;1.33;;
36259;SDS011;22296;50.824;5.644;2023-07-20T09:42:58;1.45;;;1.23;;
36259;SDS011;22296;50.824;5.644;2023-07-20T09:45:33;2.22;;;1.38;;
36259;SDS011;22296;50.824;5.644;2023-07-20T09:48:06;2.35;;;1.30;;
36259;SDS011;22296;50.824;5.644;2023-07-20T09:50:40;1.40;;;1.30;;
36259;SDS011;22296;50.824;5.644;2023-07-20T09:53:12;1.30;;;1.20;;
36259;SDS011;22296;50.824;5.644;2023-07-20T09:55:41;2.97;;;1.30;;
36259;SDS011;22296;50.824;5.644;2023-07-20T09:58:10;1.95;;;1.63;;
36259;SDS011;22296;50.824;5.644;2023-07-20T10:00:38;1.23;;;1.13;;
36259;SDS011;22296;50.824;5.644;2023-07-20T10:03:09;2.38;;;1.55;;
36259;SDS011;22296;50.824;5.644;2023-07-20T10:05:39;1.58;;;1.48;;
36259;SDS011;22296;50.824;5.644;2023-07-20T10:08:11;1.45;;;1.20;;
36259;SDS011;22296;50.824;5.644;2023-07-20T10:10:42;1.27;;;1.17;;
36259;SDS011;22296;50.824;5.644;2023-07-20T10:13:21;1.50;;;1.20;;
36259;SDS011;22296;50.824;5.644;2023-07-20T10:15:54;1.20;;;1.10;;
36259;SDS011;22296;50.824;5.644;2023-07-20T10:18:31;1.38;;;1.20;;
36259;SDS011;22296;50.824;5.644;2023-07-20T10:21:08;1.90;;;1.13;;
36259;SDS011;22296;50.824;5.644;2023-07-20T10:23:39;1.45;;;1.35;;
36259;SDS011;22296;50.824;5.644;2023-07-20T10:26:06;1.38;;;1.27;;
36259;SDS011;22296;50.824;5.644;2023-07-20T10:28:35;1.67;;;1.25;;
36259;SDS011;22296;50.824;5.644;2023-07-20T10:31:02;1.58;;;1.23;;
36259;SDS011;22296;50.824;5.644;2023-07-20T10:33:29;1.48;;;1.25;;
36259;SDS011;22296;50.824;5.644;2023-07-20T10:36:02;1.38;;;1.17;;
36259;SDS011;22296;50.824;5.644;2023-07-20T10:43:58;1.38;;;1.20;;
36259;SDS011;22296;50.824;5.644;2023-07-20T10:46:44;1.40;;;1.20;;
36259;SDS011;22296;50.824;5.644;2023-07-20T10:49:13;1.42;;;1.10;;
36259;SDS011;22296;50.824;5.644;2023-07-20T10:51:46;1.40;;;1.30;;
36259;SDS011;22296;50.824;5.644;2023-07-20T10:56:46;1.20;;;1.10;;
36259;SDS011;22296;50.824;5.644;2023-07-20T11:01:59;1.70;;;1.20;;
36259;SDS011;22296;50.824;5.644;2023-07-20T11:04:40;1.58;;;1.20;;
36259;SDS011;22296;50.824;5.644;2023-07-20T11:07:08;1.50;;;1.30;;
36259;SDS011;22296;50.824;5.644;2023-07-20T11:09:35;1.58;;;1.20;;
36259;SDS011;22296;50.824;5.644;2023-07-20T11:14:43;2.13;;;1.10;;
36259;SDS011;22296;50.824;5.644;2023-07-20T11:17:19;1.17;;;1.08;;
36259;SDS011;22296;50.824;5.644;2023-07-20T11:19:56;1.70;;;1.20;;
36259;SDS011;22296;50.824;5.644;2023-07-20T11:22:27;1.60;;;1.20;;
36259;SDS011;22296;50.824;5.644;2023-07-20T11:24:57;1.30;;;1.10;;
36259;SDS011;22296;50.824;5.644;2023-07-20T11:27:25;1.30;;;1.13;;
36259;SDS011;22296;50.824;5.644;2023-07-20T11:29:52;1.80;;;1.10;;
36259;SDS011;22296;50.824;5.644;2023-07-20T11:32:22;1.27;;;1.10;;
36259;SDS011;22296;50.824;5.644;2023-07-20T11:34:50;1.95;;;1.25;;
36259;SDS011;22296;50.824;5.644;2023-07-20T11:37:17;2.53;;;1.30;;
36259;SDS011;22296;50.824;5.644;2023-07-20T11:39:45;1.10;;;1.00;;
36259;SDS011;22296;50.824;5.644;2023-07-20T11:42:13;1.23;;;1.13;;
36259;SDS011;22296;50.824;5.644;2023-07-20T11:45:02;1.55;;;1.27;;
36259;SDS011;22296;50.824;5.644;2023-07-20T11:47:32;1.35;;;1.20;;
36259;SDS011;22296;50.824;5.644;2023-07-20T11:50:03;1.63;;;1.40;;
36259;SDS011;22296;50.824;5.644;2023-07-20T11:52:30;1.40;;;1.13;;
36259;SDS011;22296;50.824;5.644;2023-07-20T11:54:57;1.20;;;1.10;;
36259;SDS011;22296;50.824;5.644;2023-07-20T11:57:25;1.50;;;1.38;;
36259;SDS011;22296;50.824;5.644;2023-07-20T11:59:57;1.85;;;1.30;;
36259;SDS011;22296;50.824;5.644;2023-07-20T12:02:30;1.40;;;1.20;;
36259;SDS011;22296;50.824;5.644;2023-07-20T12:04:57;2.40;;;1.10;;
36259;SDS011;22296;50.824;5.644;2023-07-20T12:07:27;1.30;;;1.00;;
36259;SDS011;22296;50.824;5.644;2023-07-20T12:10:05;1.23;;;1.10;;
36259;SDS011;22296;50.824;5.644;2023-07-20T12:12:32;1.90;;;1.20;;
36259;SDS011;22296;50.824;5.644;2023-07-20T12:17:56;2.03;;;1.30;;
36259;SDS011;22296;50.824;5.644;2023-07-20T12:20:26;1.30;;;1.20;;
36259;SDS011;22296;50.824;5.644;2023-07-20T12:23:04;1.50;;;1.00;;
36259;SDS011;22296;50.824;5.644;2023-07-20T12:25:41;1.25;;;1.13;;
36259;SDS011;22296;50.824;5.644;2023-07-20T12:28:10;1.30;;;1.20;;
36259;SDS011;22296;50.824;5.644;2023-07-20T12:30:40;1.08;;;0.95;;
36259;SDS011;22296;50.824;5.644;2023-07-20T12:33:07;1.15;;;1.02;;
36259;SDS011;22296;50.824;5.644;2023-07-20T12:35:35;1.52;;;1.30;;
36259;SDS011;22296;50.824;5.644;2023-07-20T12:38:02;1.75;;;1.20;;
36259;SDS011;22296;50.824;5.644;2023-07-20T12:40:28;1.75;;;1.20;;
36259;SDS011;22296;50.824;5.644;2023-07-20T12:42:56;1.15;;;1.05;;
36259;SDS011;22296;50.824;5.644;2023-07-20T12:45:23;1.08;;;0.98;;
36259;SDS011;22296;50.824;5.644;2023-07-20T12:47:50;1.40;;;1.30;;
36259;SDS011;22296;50.824;5.644;2023-07-20T12:50:17;1.40;;;1.15;;
36259;SDS011;22296;50.824;5.644;2023-07-20T12:52:44;1.80;;;1.05;;
36259;SDS011;22296;50.824;5.644;2023-07-20T12:55:11;1.90;;;1.10;;
36259;SDS011;22296;50.824;5.644;2023-07-20T12:57:38;1.20;;;1.10;;
36259;SDS011;22296;50.824;5.644;2023-07-20T13:00:05;1.20;;;1.10;;
36259;SDS011;22296;50.824;5.644;2023-07-20T13:02:36;1.10;;;1.00;;
36259;SDS011;22296;50.824;5.644;2023-07-20T13:05:03;1.08;;;1.00;;
36259;SDS011;22296;50.824;5.644;2023-07-20T13:07:34;2.40;;;1.00;;
36259;SDS011;22296;50.824;5.644;2023-07-20T13:10:05;1.42;;;1.00;;
36259;SDS011;22296;50.824;5.644;2023-07-20T13:12:33;2.13;;;1.00;;
36259;SDS011;22296;50.824;5.644;2023-07-20T13:15:02;1.17;;;0.98;;
36259;SDS011;22296;50.824;5.644;2023-07-20T13:17:32;1.55;;;1.00;;
36259;SDS011;22296;50.824;5.644;2023-07-20T13:20:05;1.08;;;0.98;;
36259;SDS011;22296;50.824;5.644;2023-07-20T13:22:34;1.13;;;1.00;;
36259;SDS011;22296;50.824;5.644;2023-07-20T13:25:01;1.10;;;1.00;;
36259;SDS011;22296;50.824;5.644;2023-07-20T13:27:28;0.88;;;0.88;;
36259;SDS011;22296;50.824;5.644;2023-07-20T13:29:58;1.25;;;1.00;;
36259;SDS011;22296;50.824;5.644;2023-07-20T13:32:29;1.00;;;0.90;;
36259;SDS011;22296;50.824;5.644;2023-07-20T13:34:59;1.52;;;1.13;;
36259;SDS011;22296;50.824;5.644;2023-07-20T13:37:26;1.83;;;1.13;;
36259;SDS011;22296;50.824;5.644;2023-07-20T13:39:54;1.13;;;1.02;;
36259;SDS011;22296;50.824;5.644;2023-07-20T13:42:23;2.00;;;1.00;;
36259;SDS011;22296;50.824;5.644;2023-07-20T13:44:49;1.17;;;1.08;;
36259;SDS011;22296;50.824;5.644;2023-07-20T13:47:16;1.20;;;1.00;;
36259;SDS011;22296;50.824;5.644;2023-07-20T13:49:46;1.05;;;1.00;;
36259;SDS011;22296;50.824;5.644;2023-07-20T13:52:14;0.90;;;0.88;;
36259;SDS011;22296;50.824;5.644;2023-07-20T13:54:44;1.20;;;1.10;;
36259;SDS011;22296;50.824;5.644;2023-07-20T13:57:14;1.17;;;1.08;;
36259;SDS011;22296;50.824;5.644;2023-07-20T13:59:44;1.25;;;0.90;;
36259;SDS011;22296;50.824;5.644;2023-07-20T14:02:13;1.55;;;1.10;;
36259;SDS011;22296;50.824;5.644;2023-07-20T14:04:43;1.23;;;1.10;;
36259;SDS011;22296;50.824;5.644;2023-07-20T14:07:10;1.08;;;0.98;;
36259;SDS011;22296;50.824;5.644;2023-07-20T14:09:38;1.35;;;1.10;;
36259;SDS011;22296;50.824;5.644;2023-07-20T14:12:24;0.80;;;0.80;;
36259;SDS011;22296;50.824;5.644;2023-07-20T14:14:51;1.10;;;1.00;;
36259;SDS011;22296;50.824;5.644;2023-07-20T14:17:18;1.02;;;0.90;;
36259;SDS011;22296;50.824;5.644;2023-07-20T14:19:45;1.17;;;1.00;;
36259;SDS011;22296;50.824;5.644;2023-07-20T14:22:12;0.80;;;0.80;;
36259;SDS011;22296;50.824;5.644;2023-07-20T14:24:39;1.45;;;0.95;;
36259;SDS011;22296;50.824;5.644;2023-07-20T14:27:06;0.90;;;0.90;;
36259;SDS011;22296;50.824;5.644;2023-07-20T14:29:33;1.48;;;1.05;;
36259;SDS011;22296;50.824;5.644;2023-07-20T14:32:03;1.10;;;1.00;;
36259;SDS011;22296;50.824;5.644;2023-07-20T14:34:30;1.00;;;0.90;;
36259;SDS011;22296;50.824;5.644;2023-07-20T14:36:59;1.13;;;0.93;;
36259;SDS011;22296;50.824;5.644;2023-07-20T14:39:27;0.80;;;0.80;;
36259;SDS011;22296;50.824;5.644;2023-07-20T14:41:53;1.10;;;0.90;;
36259;SDS011;22296;50.824;5.644;2023-07-20T14:44:20;1.15;;;0.90;;
36259;SDS011;22296;50.824;5.644;2023-07-20T14:46:47;1.02;;;0.70;;
36259;SDS011;22296;50.824;5.644;2023-07-20T14:49:34;0.85;;;0.70;;
36259;SDS011;22296;50.824;5.644;2023-07-20T14:52:01;1.95;;;0.93;;
36259;SDS011;22296;50.824;5.644;2023-07-20T14:54:40;1.05;;;1.05;;
36259;SDS011;22296;50.824;5.644;2023-07-20T14:57:07;0.80;;;0.80;;
36259;SDS011;22296;50.824;5.644;2023-07-20T14:59:40;1.08;;;0.90;;
36259;SDS011;22296;50.824;5.644;2023-07-20T15:02:11;2.42;;;0.88;;
36259;SDS011;22296;50.824;5.644;2023-07-20T15:04:45;1.13;;;0.80;;
36259;SDS011;22296;50.824;5.644;2023-07-20T15:07:16;2.45;;;0.80;;
36259;SDS011;22296;50.824;5.644;2023-07-20T15:09:44;0.70;;;0.70;;
36259;SDS011;22296;50.824;5.644;2023-07-20T15:12:13;1.13;;;0.88;;
36259;SDS011;22296;50.824;5.644;2023-07-20T15:14:41;1.30;;;0.90;;
36259;SDS011;22296;50.824;5.644;2023-07-20T15:17:09;0.70;;;0.70;;
36259;SDS011;22296;50.824;5.644;2023-07-20T15:19:37;1.20;;;0.90;;
36259;SDS011;22296;50.824;5.644;2023-07-20T15:22:03;0.98;;;0.90;;
36259;SDS011;22296;50.824;5.644;2023-07-20T15:24:32;0.85;;;0.80;;
36259;SDS011;22296;50.824;5.644;2023-07-20T15:26:59;1.55;;;0.82;;
36259;SDS011;22296;50.824;5.644;2023-07-20T15:29:28;1.48;;;0.88;;
36259;SDS011;22296;50.824;5.644;2023-07-20T15:31:57;0.73;;;0.70;;
36259;SDS011;22296;50.824;5.644;2023-07-20T15:34:26;1.48;;;1.10;;
36259;SDS011;22296;50.824;5.644;2023-07-20T15:36:54;1.33;;;0.82;;
36259;SDS011;22296;50.824;5.644;2023-07-20T15:39:21;1.23;;;1.00;;